Time;durP1;ratioP1;P1;durP2;ratioP2;P2;SDS_P1;SDS_P2;PMS_P1;PMS_P2;Temp;Humidity;BMP_temperature;BMP_pressure;BME280_temperature;BME280_humidity;BME280_pressure;Samples;Min_cycle;Max_cycle;Signal;HPM_P1;HPM_P2
2021/10/09 00:01:48;;;;;;;10.30;3.95;;;21.60;71.30;;;;;;4989929;28;20015;-60
2021/10/09 00:04:16;;;;;;;17.27;5.20;;;21.70;71.20;;;;;;4989700;28;20026;-67
2021/10/09 00:06:44;;;;;;;15.60;4.80;;;21.80;69.80;;;;;;4989868;28;20504;-61
2021/10/09 00:09:11;;;;;;;14.55;4.85;;;21.90;69.50;;;;;;4989463;28;20030;-62
2021/10/09 00:11:39;;;;;;;10.15;4.97;;;21.90;70.00;;;;;;4988615;28;20054;-65
2021/10/09 00:14:12;;;;;;;12.45;4.53;;;21.90;70.20;;;;;;4989733;28;20033;-64
2021/10/09 00:16:44;;;;;;;11.48;4.00;;;21.90;70.30;;;;;;4990226;28;20030;-61
2021/10/09 00:19:11;;;;;;;;;;;22.10;69.50;;;;;;4990636;28;20026;-60
2021/10/09 00:21:43;;;;;;;13.60;4.45;;;22.00;69.70;;;;;;4972223;28;20417;-60
2021/10/09 00:24:16;;;;;;;11.93;4.35;;;22.20;69.50;;;;;;4989275;28;20031;-65
2021/10/09 00:26:44;;;;;;;13.70;4.28;;;22.20;69.50;;;;;;4989939;28;20099;-62
2021/10/09 00:29:12;;;;;;;12.93;4.47;;;22.20;68.80;;;;;;4989774;28;20022;-66
2021/10/09 00:31:40;;;;;;;10.82;4.88;;;22.20;69.30;;;;;;4989751;28;20504;-65
2021/10/09 00:34:08;;;;;;;14.05;4.10;;;22.40;67.70;;;;;;4989068;28;20022;-63
2021/10/09 00:36:36;;;;;;;15.23;4.70;;;22.50;66.60;;;;;;4989226;28;20522;-58
2021/10/09 00:39:04;;;;;;;10.10;3.60;;;22.50;68.30;;;;;;4989371;28;20040;-58
2021/10/09 00:41:32;;;;;;;15.18;3.92;;;22.60;66.00;;;;;;4989280;28;20034;-60
2021/10/09 00:44:13;;;;;;;9.43;3.58;;;22.60;67.40;;;;;;4989464;28;20034;-55
2021/10/09 00:46:42;;;;;;;10.88;4.00;;;22.80;66.80;;;;;;4974909;28;20065;-61
2021/10/09 00:49:20;;;;;;;8.70;3.50;;;22.70;66.60;;;;;;4992552;28;20362;-69
2021/10/09 00:51:49;;;;;;;13.95;3.83;;;22.90;63.50;;;;;;4992433;28;20038;-63
2021/10/09 00:54:19;;;;;;;16.17;5.25;;;23.00;66.20;;;;;;4992712;28;20046;-61
2021/10/09 00:56:48;;;;;;;13.63;4.28;;;23.00;63.00;;;;;;4992544;28;20058;-61
2021/10/09 00:59:17;;;;;;;12.52;3.80;;;23.00;65.20;;;;;;4992303;28;20030;-60
2021/10/09 01:01:44;;;;;;;8.45;3.63;;;23.10;64.20;;;;;;4992466;28;20113;-62
2021/10/09 01:04:12;;;;;;;13.20;3.88;;;23.00;66.20;;;;;;4975061;28;20071;-61
2021/10/09 01:06:39;;;;;;;8.45;3.25;;;23.30;61.70;;;;;;4992196;28;20038;-63
2021/10/09 01:09:07;;;;;;;12.55;4.38;;;23.30;62.50;;;;;;4992267;28;20037;-64
2021/10/09 01:11:34;;;;;;;14.55;4.15;;;23.20;65.60;;;;;;4991942;28;20042;-63
2021/10/09 01:14:02;;;;;;;12.75;4.30;;;23.20;65.40;;;;;;4987001;28;20022;-59
2021/10/09 01:16:30;;;;;;;8.68;3.33;;;23.40;62.70;;;;;;5011399;28;20026;-58
2021/10/09 01:18:59;;;;;;;11.25;3.17;;;23.70;61.60;;;;;;4993250;28;20029;-58
2021/10/09 01:21:27;;;;;;;14.05;2.83;;;23.90;61.70;;;;;;5008605;28;20030;-56
2021/10/09 01:23:54;;;;;;;17.00;3.72;;;24.10;56.90;;;;;;5007710;28;20030;-56
2021/10/09 01:26:22;;;;;;;14.65;3.42;;;24.20;58.50;;;;;;5010428;28;20149;-58
2021/10/09 01:28:52;;;;;;;13.18;3.90;;;24.40;59.80;;;;;;4993429;28;20122;-62
2021/10/09 01:31:20;;;;;;;11.63;3.80;;;24.40;57.50;;;;;;5006489;28;20029;-58
2021/10/09 01:33:47;;;;;;;14.25;3.22;;;24.60;58.80;;;;;;5009671;28;20043;-61
2021/10/09 01:36:15;;;;;;;11.93;3.15;;;24.60;57.70;;;;;;5010506;28;20026;-58
2021/10/09 01:38:48;;;;;;;8.18;3.00;;;24.70;57.60;;;;;;5010695;28;20426;-56
2021/10/09 01:41:15;;;;;;;12.15;2.83;;;24.80;56.70;;;;;;5006259;28;20430;-59
2021/10/09 01:43:42;;;;;;;15.38;2.90;;;24.80;56.90;;;;;;5009187;28;20407;-59
2021/10/09 01:46:10;;;;;;;10.52;3.70;;;24.90;56.70;;;;;;5006626;28;20028;-50
2021/10/09 01:48:40;;;;;;;11.73;3.47;;;24.90;57.20;;;;;;5010273;28;20022;-51
2021/10/09 01:51:08;;;;;;;15.98;3.35;;;25.00;57.10;;;;;;5005776;28;20115;-56
2021/10/09 01:53:36;;;;;;;15.98;3.30;;;25.10;56.60;;;;;;5008951;28;20579;-54
2021/10/09 01:56:05;;;;;;;13.70;2.83;;;25.10;56.60;;;;;;5010101;28;20433;-51
2021/10/09 01:58:33;;;;;;;13.38;3.45;;;25.10;56.00;;;;;;5008882;28;20038;-54
2021/10/09 02:01:00;;;;;;;8.45;2.70;;;25.20;55.90;;;;;;5005562;28;20091;-53
2021/10/09 02:03:27;;;;;;;10.55;3.03;;;25.30;55.10;;;;;;5009336;28;20052;-54
2021/10/09 02:05:55;;;;;;;11.48;3.78;;;25.40;54.90;;;;;;5009105;28;20034;-55
2021/10/09 02:08:22;;;;;;;8.25;3.10;;;25.50;53.80;;;;;;5009069;28;20503;-56
2021/10/09 02:13:23;;;;;;;8.52;2.60;;;25.60;54.80;;;;;;4992102;28;20507;-62
2021/10/09 02:16:17;;;;;;;9.77;2.78;;;25.60;53.00;;;;;;5008325;28;20391;-61
2021/10/09 02:24:42;;;;;;;10.40;3.05;;;25.20;56.00;;;;;;5007313;28;20495;-64
2021/10/09 02:27:10;;;;;;;7.75;2.60;;;25.00;56.60;;;;;;5010743;28;20030;-67
2021/10/09 02:29:38;;;;;;;10.90;3.55;;;24.80;58.00;;;;;;5010790;28;20026;-63
2021/10/09 02:32:05;;;;;;;9.23;2.80;;;24.80;57.40;;;;;;5010622;28;20112;-64
2021/10/09 02:34:32;;;;;;;10.52;2.60;;;24.80;57.40;;;;;;5010317;28;20106;-67
2021/10/09 02:37:00;;;;;;;9.57;3.58;;;24.90;57.20;;;;;;5009819;28;20053;-67
2021/10/09 02:39:27;;;;;;;8.15;4.55;;;24.90;56.40;;;;;;5009989;28;20084;-65
2021/10/09 02:41:55;;;;;;;13.48;5.47;;;24.90;56.30;;;;;;5008547;28;20015;-62
2021/10/09 02:44:22;;;;;;;13.57;6.03;;;24.90;56.10;;;;;;5009626;28;20033;-64
2021/10/09 02:46:50;;;;;;;15.43;9.18;;;25.10;54.20;;;;;;5010740;28;20050;-63
2021/10/09 02:49:17;;;;;;;19.90;9.98;;;25.00;54.90;;;;;;5010205;28;20022;-64
2021/10/09 02:51:44;;;;;;;15.23;10.15;;;25.00;55.00;;;;;;4998923;28;20049;-58
2021/10/09 02:54:12;;;;;;;17.52;10.88;;;24.90;53.80;;;;;;5006963;28;20046;-67
2021/10/09 02:56:39;;;;;;;15.13;9.40;;;25.00;55.80;;;;;;5009659;28;20366;-61
2021/10/09 02:59:07;;;;;;;13.93;9.35;;;24.90;56.10;;;;;;5008523;28;20026;-65
2021/10/09 03:01:34;;;;;;;16.63;10.05;;;25.10;54.90;;;;;;4991515;28;20500;-63
2021/10/09 03:04:02;;;;;;;13.20;8.85;;;25.00;57.90;;;;;;5005146;28;20121;-65
2021/10/09 03:06:29;;;;;;;16.52;10.63;;;25.10;53.10;;;;;;5010009;28;20097;-63
2021/10/09 03:08:56;;;;;;;15.30;10.48;;;25.10;56.60;;;;;;5008026;28;20108;-61
2021/10/09 03:11:24;;;;;;;12.48;8.30;;;25.10;54.30;;;;;;5008908;28;20034;-62
2021/10/09 03:13:51;;;;;;;21.08;9.13;;;25.10;57.50;;;;;;5003754;28;20118;-61
2021/10/09 03:16:18;;;;;;;19.23;8.05;;;25.00;58.00;;;;;;5008893;28;20030;-57
2021/10/09 03:18:45;;;;;;;14.75;8.95;;;25.10;56.00;;;;;;5008526;28;20030;-61
2021/10/09 03:21:13;;;;;;;11.82;7.40;;;25.00;57.30;;;;;;5008575;28;20376;-63
2021/10/09 03:23:40;;;;;;;12.68;8.13;;;24.90;57.80;;;;;;5003668;28;20888;-58
2021/10/09 03:26:07;;;;;;;11.52;6.55;;;25.10;55.90;;;;;;5008973;28;20029;-58
2021/10/09 03:28:35;;;;;;;15.30;7.57;;;25.20;54.50;;;;;;5008673;28;20026;-59
2021/10/09 03:31:02;;;;;;;10.23;6.40;;;25.20;56.10;;;;;;5007926;28;20045;-57
2021/10/09 03:33:30;;;;;;;10.35;7.10;;;25.20;55.80;;;;;;5004578;28;20018;-58
2021/10/09 03:35:57;;;;;;;10.75;6.32;;;25.00;55.90;;;;;;5008901;28;20116;-66
2021/10/09 03:38:25;;;;;;;10.25;7.15;;;25.00;55.20;;;;;;4992793;28;20032;-64
2021/10/09 03:40:59;;;;;;;12.57;7.00;;;25.00;54.40;;;;;;5010088;28;20138;-59
2021/10/09 03:43:26;;;;;;;11.55;5.88;;;24.90;56.60;;;;;;5009962;28;20033;-64
2021/10/09 03:54:04;;;;;;;8.10;4.75;;;24.80;54.80;;;;;;4995245;28;20511;-67
2021/10/09 03:56:32;;;;;;;12.85;5.97;;;24.80;53.70;;;;;;5009522;28;20539;-67
2021/10/09 03:59:00;;;;;;;10.68;5.18;;;24.90;54.60;;;;;;5009872;28;20030;-64
2021/10/09 04:01:27;;;;;;;11.35;6.25;;;24.90;53.30;;;;;;5009468;28;20041;-65
2021/10/09 04:03:54;;;;;;;9.00;5.13;;;24.70;57.40;;;;;;5009482;28;20033;-70
2021/10/09 04:06:22;;;;;;;9.32;4.45;;;24.70;54.50;;;;;;5009689;28;20034;-65
2021/10/09 04:08:49;;;;;;;8.85;5.50;;;24.80;53.40;;;;;;5009746;28;20426;-68
2021/10/09 04:11:17;;;;;;;8.88;4.50;;;24.70;57.30;;;;;;5009801;28;20160;-64
2021/10/09 04:13:44;;;;;;;11.68;5.15;;;24.70;54.20;;;;;;5009289;28;20026;-66
2021/10/09 04:16:11;;;;;;;9.70;4.85;;;24.80;53.90;;;;;;4992052;28;20024;-64
2021/10/09 04:18:39;;;;;;;6.20;4.10;;;24.70;56.10;;;;;;5009450;28;20026;-64
2021/10/09 04:21:06;;;;;;;8.10;4.22;;;24.70;56.30;;;;;;4977132;28;20441;-66
2021/10/09 04:23:34;;;;;;;6.32;4.10;;;24.70;54.00;;;;;;5013266;28;20026;-67
2021/10/09 04:26:01;;;;;;;10.13;5.13;;;24.80;56.40;;;;;;5013006;28;20026;-61
2021/10/09 04:28:28;;;;;;;6.43;4.05;;;24.70;56.10;;;;;;5013016;28;20059;-60
2021/10/09 04:30:56;;;;;;;7.93;5.00;;;24.90;54.90;;;;;;5012711;28;20057;-68
2021/10/09 04:33:33;;;;;;;;;;;;;;;;;;;;;
2021/10/09 04:36:01;;;;;;;9.38;4.70;;;25.00;55.30;;;;;;5016814;28;20038;-60
2021/10/09 04:38:29;;;;;;;9.60;4.75;;;24.90;54.70;;;;;;5012723;28;20353;-64
2021/10/09 04:40:56;;;;;;;13.13;4.43;;;24.90;56.20;;;;;;5012494;28;20117;-60
2021/10/09 04:43:23;;;;;;;9.35;3.80;;;25.10;54.10;;;;;;5012714;28;20097;-66
2021/10/09 04:45:51;;;;;;;14.30;6.00;;;25.00;55.50;;;;;;5012775;28;20451;-64
2021/10/09 04:48:19;;;;;;;7.05;3.72;;;24.90;56.40;;;;;;5004942;28;20056;-60
2021/10/09 04:50:46;;;;;;;10.35;4.30;;;24.90;56.30;;;;;;5012403;28;20114;-61
2021/10/09 04:53:13;;;;;;;8.05;5.00;;;24.80;57.10;;;;;;5012071;28;20053;-64
2021/10/09 04:55:41;;;;;;;12.02;5.35;;;24.70;57.60;;;;;;4995729;28;20137;-59
2021/10/09 04:58:09;;;;;;;6.20;3.88;;;24.70;55.50;;;;;;5012454;28;20030;-61
2021/10/09 05:00:36;;;;;;;9.35;4.47;;;24.60;57.00;;;;;;4995127;28;20067;-60
2021/10/09 05:03:04;;;;;;;10.70;3.10;;;24.70;57.10;;;;;;5011765;28;20030;-66
2021/10/09 05:05:33;;;;;;;9.32;3.50;;;24.90;53.00;;;;;;5012475;28;20071;-64
2021/10/09 05:08:03;;;;;;;8.45;3.30;;;25.10;52.10;;;;;;5011973;28;20098;-65
2021/10/09 05:10:31;;;;;;;7.05;2.97;;;25.20;52.40;;;;;;5012168;28;20476;-66
2021/10/09 05:13:00;;;;;;;11.60;2.67;;;25.30;51.40;;;;;;5012487;28;20444;-65
2021/10/09 05:15:42;;;;;;;8.05;3.40;;;25.30;49.40;;;;;;4995273;28;20038;-66
2021/10/09 05:18:13;;;;;;;8.52;3.70;;;25.40;52.30;;;;;;5011652;28;20526;-61
2021/10/09 05:20:41;;;;;;;7.17;2.90;;;25.00;55.00;;;;;;5012009;28;20491;-63
2021/10/09 05:23:08;;;;;;;6.72;3.22;;;24.90;54.20;;;;;;5011885;28;20033;-64
2021/10/09 05:25:41;;;;;;;4.72;2.75;;;24.70;54.80;;;;;;5011597;28;20022;-60
2021/10/09 05:28:15;;;;;;;8.73;3.10;;;24.60;56.00;;;;;;5011446;28;20030;-64
2021/10/09 05:30:49;;;;;;;8.25;2.80;;;24.50;57.50;;;;;;5011845;28;20045;-60
2021/10/09 05:35:45;;;;;;;9.02;3.22;;;24.50;57.50;;;;;;5001290;28;20034;-62
2021/10/09 05:38:12;;;;;;;9.70;3.53;;;24.40;57.10;;;;;;5010674;28;20749;-61
2021/10/09 05:40:40;;;;;;;8.77;3.30;;;24.50;57.60;;;;;;4988477;28;20174;-66
2021/10/09 05:43:07;;;;;;;33.03;4.47;;;24.50;58.40;;;;;;5010289;28;20504;-64
2021/10/09 05:45:34;;;;;;;7.28;2.67;;;24.60;58.40;;;;;;5007896;28;20048;-69
2021/10/09 05:48:02;;;;;;;4.97;2.45;;;24.60;58.10;;;;;;5011478;28;20029;-67
2021/10/09 05:50:37;;;;;;;6.60;2.47;;;24.50;58.70;;;;;;5010086;28;20037;-65
2021/10/09 05:55:56;;;;;;;9.00;2.90;;;24.50;58.70;;;;;;5009202;28;20037;-68
2021/10/09 06:01:19;;;;;;;7.32;2.97;;;24.60;59.70;;;;;;5010437;28;20022;-68
2021/10/09 06:42:45;;;;;;;9.95;2.42;;;24.10;60.20;;;;;;4932150;28;20058;-63
2021/10/09 06:48:15;;;;;;;11.85;3.08;;;24.30;59.00;;;;;;5009496;28;20098;-57
2021/10/09 06:59:30;;;;;;;9.77;2.97;;;24.30;56.80;;;;;;5005660;28;20040;-59
2021/10/09 07:01:58;;;;;;;9.02;2.50;;;24.30;56.20;;;;;;5009311;28;20472;-65
2021/10/09 07:04:26;;;;;;;10.43;2.17;;;24.10;57.30;;;;;;5004950;28;20064;-64
2021/10/09 07:06:55;;;;;;;11.13;2.83;;;24.10;57.90;;;;;;5008846;28;20026;-62
2021/10/09 07:09:22;;;;;;;11.32;2.80;;;24.00;58.30;;;;;;5011841;28;20045;-62
2021/10/09 07:11:53;;;;;;;12.13;2.50;;;23.90;58.60;;;;;;5011538;28;20030;-65
2021/10/09 07:14:20;;;;;;;10.90;3.55;;;23.90;58.90;;;;;;5006702;28;20026;-56
2021/10/09 07:16:49;;;;;;;11.10;2.35;;;23.90;59.20;;;;;;5010960;28;20019;-61
2021/10/09 07:19:17;;;;;;;7.63;2.47;;;23.80;60.20;;;;;;5009998;28;20025;-61
2021/10/09 07:21:44;;;;;;;9.35;3.08;;;23.70;59.80;;;;;;5005944;28;20022;-62
2021/10/09 07:24:14;;;;;;;10.48;2.63;;;23.70;60.40;;;;;;5004101;28;20551;-62
2021/10/09 07:26:41;;;;;;;10.05;3.33;;;23.60;60.50;;;;;;5008846;28;20047;-63
2021/10/09 07:29:09;;;;;;;14.57;2.88;;;23.50;60.80;;;;;;5009061;28;21569;-62
2021/10/09 07:31:36;;;;;;;7.45;2.55;;;23.50;61.10;;;;;;5010062;28;20038;-62
2021/10/09 07:34:04;;;;;;;10.85;2.95;;;23.50;61.30;;;;;;5004588;28;20025;-64
2021/10/09 07:36:31;;;;;;;10.80;2.53;;;23.50;61.50;;;;;;4991787;28;20037;-61
2021/10/09 07:38:58;;;;;;;9.02;2.80;;;23.40;61.40;;;;;;5009547;28;20082;-67
2021/10/09 07:41:26;;;;;;;6.60;2.90;;;23.40;61.80;;;;;;5009573;28;20045;-61
2021/10/09 07:43:53;;;;;;;14.80;3.65;;;23.40;61.80;;;;;;4986265;28;20246;-64
2021/10/09 07:46:20;;;;;;;7.72;2.90;;;23.30;61.80;;;;;;5005120;28;20026;-67
2021/10/09 07:48:48;;;;;;;6.45;2.50;;;23.20;62.10;;;;;;5008982;28;20221;-64
2021/10/09 07:51:15;;;;;;;6.82;2.33;;;23.20;62.20;;;;;;5009232;28;20030;-62
2021/10/09 07:53:43;;;;;;;7.20;2.70;;;23.20;61.80;;;;;;5004206;28;20054;-64
2021/10/09 07:56:21;;;;;;;9.90;2.65;;;23.10;62.10;;;;;;5011546;28;20113;-61
2021/10/09 07:58:48;;;;;;;7.15;2.75;;;23.10;62.60;;;;;;5013430;28;20037;-63
2021/10/09 08:01:28;;;;;;;9.13;2.83;;;23.10;62.70;;;;;;5013346;28;20022;-62
2021/10/09 08:03:59;;;;;;;10.52;3.05;;;23.00;62.70;;;;;;4989395;28;20395;-60
2021/10/09 08:06:27;;;;;;;8.25;2.50;;;23.00;63.20;;;;;;5011754;28;20033;-62
2021/10/09 08:08:54;;;;;;;6.55;2.05;;;23.00;63.30;;;;;;5013023;28;20469;-64
2021/10/09 08:11:21;;;;;;;11.10;3.00;;;23.00;63.20;;;;;;4994719;28;20041;-64
2021/10/09 08:13:49;;;;;;;9.63;2.92;;;23.00;63.00;;;;;;5007560;28;20083;-64
2021/10/09 08:16:16;;;;;;;9.30;2.80;;;23.00;63.30;;;;;;5011054;28;20065;-61
2021/10/09 08:18:43;;;;;;;11.63;2.85;;;22.90;63.40;;;;;;5012456;28;21523;-58
2021/10/09 08:21:12;;;;;;;6.45;2.75;;;22.90;63.60;;;;;;5012505;28;20040;-63
2021/10/09 08:23:56;;;;;;;9.45;2.42;;;22.90;63.80;;;;;;5006983;28;20044;-61
2021/10/09 08:40:07;;;;;;;8.48;3.15;;;22.80;63.90;;;;;;5012783;28;20018;-60
2021/10/09 08:42:35;;;;;;;6.10;2.20;;;22.80;63.90;;;;;;5010745;28;20033;-59
2021/10/09 08:45:03;;;;;;;8.50;2.78;;;22.80;64.30;;;;;;5005785;28;20113;-58
2021/10/09 08:47:34;;;;;;;5.95;2.78;;;22.70;64.40;;;;;;5008215;28;20034;-62
2021/10/09 08:50:03;;;;;;;8.13;2.58;;;22.70;64.10;;;;;;5010775;28;20522;-62
2021/10/09 08:52:31;;;;;;;7.32;2.42;;;22.60;64.60;;;;;;5009180;28;20042;-64
2021/10/09 08:55:17;;;;;;;6.32;2.03;;;22.70;64.50;;;;;;4987707;28;20056;-65
2021/10/09 08:57:46;;;;;;;8.90;2.83;;;22.60;64.50;;;;;;4991445;28;20598;-61
2021/10/09 09:00:16;;;;;;;9.63;2.78;;;22.60;63.40;;;;;;5007664;28;20515;-60
2021/10/09 09:03:11;;;;;;;5.82;2.33;;;22.60;64.40;;;;;;5005470;28;20121;-63
2021/10/09 09:05:51;;;;;;;6.28;2.40;;;22.60;64.10;;;;;;5003034;28;20073;-63
2021/10/09 09:09:08;;;;;;;12.05;2.85;;;22.60;63.40;;;;;;5004755;28;20038;-60
2021/10/09 09:25:47;;;;;;;13.65;2.40;;;22.60;64.20;;;;;;5004884;28;20179;-62
2021/10/09 09:31:25;;;;;;;5.53;2.55;;;22.50;64.70;;;;;;5009884;28;20074;-66
2021/10/09 09:39:09;;;;;;;11.23;2.88;;;22.50;63.80;;;;;;5011549;28;20541;-62
2021/10/09 09:41:47;;;;;;;9.45;2.58;;;22.50;63.80;;;;;;5014902;28;20040;-63
2021/10/09 09:44:17;;;;;;;8.80;2.55;;;22.50;64.00;;;;;;5013438;28;20388;-69
2021/10/09 09:47:01;;;;;;;8.60;2.33;;;22.50;62.10;;;;;;5012035;28;20384;-63
2021/10/09 09:49:32;;;;;;;8.00;2.30;;;22.50;63.30;;;;;;5011619;28;20053;-65
2021/10/09 09:52:00;;;;;;;11.43;2.42;;;22.60;63.30;;;;;;5011468;28;20065;-66
2021/10/09 09:54:30;;;;;;;11.23;2.67;;;22.50;63.00;;;;;;5005250;28;20062;-68
2021/10/09 09:57:02;;;;;;;7.63;2.28;;;22.50;63.60;;;;;;5009767;28;20022;-66
2021/10/09 09:59:33;;;;;;;5.68;2.13;;;22.50;62.80;;;;;;5015137;28;20022;-63
2021/10/09 10:02:05;;;;;;;6.68;2.75;;;22.50;62.70;;;;;;4997306;28;20022;-64
2021/10/09 10:04:35;;;;;;;7.53;2.45;;;22.50;63.70;;;;;;5007562;28;20083;-63
2021/10/09 10:07:04;;;;;;;5.93;2.70;;;22.50;63.70;;;;;;5010209;28;20052;-62
2021/10/09 10:09:32;;;;;;;8.95;2.25;;;22.50;63.20;;;;;;5010702;28;20410;-63
2021/10/09 10:12:07;;;;;;;6.75;2.40;;;22.50;63.40;;;;;;5010406;28;20038;-60
2021/10/09 10:14:38;;;;;;;13.18;2.78;;;22.50;62.70;;;;;;5003560;28;20388;-66
2021/10/09 10:17:05;;;;;;;7.40;2.10;;;22.50;63.30;;;;;;5010006;28;20096;-63
2021/10/09 10:19:50;;;;;;;8.02;2.47;;;22.50;63.70;;;;;;5009495;28;20053;-63
2021/10/09 10:22:41;;;;;;;6.85;2.20;;;22.40;64.10;;;;;;5008361;28;20029;-65
2021/10/09 10:25:31;;;;;;;10.48;2.78;;;22.40;64.70;;;;;;4985032;28;20026;-61
2021/10/09 10:28:07;;;;;;;6.50;2.30;;;22.40;64.70;;;;;;5010031;28;20422;-66
2021/10/09 10:30:45;;;;;;;10.82;2.70;;;22.40;64.60;;;;;;5010328;28;20376;-64
2021/10/09 10:33:18;;;;;;;5.82;2.45;;;22.40;64.70;;;;;;5011168;28;20026;-59
2021/10/09 10:35:47;;;;;;;7.70;2.65;;;22.40;64.90;;;;;;5004397;28;20022;-60
2021/10/09 10:39:17;;;;;;;7.13;2.53;;;22.40;65.00;;;;;;5010637;28;20491;-62
2021/10/09 10:41:48;;;;;;;5.18;2.35;;;22.30;65.10;;;;;;5009966;28;20557;-57
2021/10/09 10:48:04;;;;;;;6.32;2.53;;;22.30;65.30;;;;;;4949450;28;20391;-65
2021/10/09 10:50:55;;;;;;;9.32;2.50;;;22.30;65.50;;;;;;5001186;28;20033;-60
2021/10/09 10:53:48;;;;;;;8.05;2.33;;;22.30;65.40;;;;;;5007814;28;20042;-60
2021/10/09 10:56:15;;;;;;;8.90;2.83;;;22.30;65.50;;;;;;5008550;28;20034;-64
2021/10/09 10:58:42;;;;;;;6.10;2.30;;;22.30;65.80;;;;;;5009802;28;20113;-57
2021/10/09 11:01:20;;;;;;;6.50;2.40;;;22.30;65.60;;;;;;5011014;28;20030;-66
2021/10/09 11:03:48;;;;;;;7.95;2.58;;;22.30;65.70;;;;;;5007047;28;20034;-67
2021/10/09 11:06:21;;;;;;;6.18;2.15;;;22.30;65.80;;;;;;5013322;28;20087;-56
2021/10/09 11:08:50;;;;;;;5.90;2.13;;;22.30;65.90;;;;;;5015509;28;20030;-57
2021/10/09 11:11:32;;;;;;;9.25;2.65;;;22.20;66.00;;;;;;4998492;28;20034;-64
2021/10/09 11:14:00;;;;;;;5.43;2.50;;;22.20;65.90;;;;;;4990308;28;20033;-63
2021/10/09 11:16:31;;;;;;;11.93;3.10;;;22.30;65.90;;;;;;5011648;28;20026;-60
2021/10/09 11:18:59;;;;;;;8.45;2.50;;;22.20;66.00;;;;;;5008506;28;20104;-61
2021/10/09 11:21:31;;;;;;;6.22;2.55;;;22.20;66.00;;;;;;5012630;28;20041;-62
2021/10/09 11:24:00;;;;;;;6.57;2.90;;;22.20;66.20;;;;;;5005618;28;20042;-59
2021/10/09 11:26:28;;;;;;;8.73;3.47;;;22.20;66.20;;;;;;5011127;28;20026;-60
2021/10/09 11:29:06;;;;;;;8.02;2.38;;;22.30;66.50;;;;;;5012295;28;20033;-60
2021/10/09 11:31:33;;;;;;;9.68;2.75;;;22.20;66.30;;;;;;5007708;28;20056;-58
2021/10/09 11:34:04;;;;;;;7.95;2.45;;;22.20;66.40;;;;;;5000107;28;20041;-65
2021/10/09 11:36:41;;;;;;;8.07;2.75;;;22.20;66.50;;;;;;5010983;28;20476;-66
2021/10/09 11:39:15;;;;;;;9.10;3.05;;;22.20;66.70;;;;;;5013012;28;20026;-69
2021/10/09 11:42:00;;;;;;;6.70;2.53;;;22.20;66.70;;;;;;5008973;28;20101;-58
2021/10/09 11:44:32;;;;;;;10.65;3.88;;;22.20;66.60;;;;;;5001917;28;20437;-59
2021/10/09 11:56:04;;;;;;;6.20;2.63;;;22.10;67.10;;;;;;5006322;28;20052;-69
2021/10/09 11:58:32;;;;;;;8.05;3.10;;;22.10;67.10;;;;;;5009950;28;20033;-65
2021/10/09 12:00:59;;;;;;;7.55;3.30;;;22.10;67.10;;;;;;5009141;28;20022;-65
2021/10/09 12:03:31;;;;;;;10.73;3.55;;;22.10;67.40;;;;;;5006714;28;20026;-61
2021/10/09 12:06:00;;;;;;;;;;;22.10;67.60;;;;;;5010295;28;20488;-65
2021/10/09 12:08:28;;;;;;;14.60;5.68;;;22.10;67.40;;;;;;5007389;28;19916;-68
2021/10/09 12:11:23;;;;;;;6.35;2.08;;;22.00;67.40;;;;;;5009854;28;20091;-67
2021/10/09 12:14:10;;;;;;;7.95;2.45;;;22.00;67.80;;;;;;5010236;28;20033;-61
2021/10/09 12:16:43;;;;;;;7.53;2.75;;;21.90;67.40;;;;;;5010395;28;20053;-64
2021/10/09 12:19:25;;;;;;;6.13;2.45;;;21.90;68.10;;;;;;5010010;28;20097;-66
2021/10/09 12:21:52;;;;;;;8.65;2.80;;;21.90;67.70;;;;;;5010016;28;20062;-65
2021/10/09 12:24:31;;;;;;;9.27;2.63;;;21.90;68.00;;;;;;5009884;28;20034;-67
2021/10/09 12:27:07;;;;;;;8.65;3.50;;;21.90;68.00;;;;;;4992783;28;20555;-63
2021/10/09 12:29:36;;;;;;;7.13;2.40;;;21.90;68.20;;;;;;5009023;28;20507;-66
2021/10/09 12:32:19;;;;;;;10.35;2.45;;;21.80;68.10;;;;;;5009260;28;20042;-59
2021/10/09 12:34:47;;;;;;;13.40;3.90;;;21.80;68.40;;;;;;5008394;28;20026;-60
2021/10/09 12:37:27;;;;;;;9.57;2.90;;;21.80;69.30;;;;;;5009659;28;20113;-65
2021/10/09 12:40:14;;;;;;;9.98;2.95;;;21.80;69.10;;;;;;5009620;28;20026;-65
2021/10/09 12:42:47;;;;;;;10.98;4.97;;;21.80;68.80;;;;;;5011683;28;20018;-65
2021/10/09 12:45:16;;;;;;;13.40;5.38;;;21.80;69.90;;;;;;5013442;28;20037;-70
2021/10/09 12:47:44;;;;;;;13.73;5.47;;;21.80;69.70;;;;;;5013339;28;20113;-68
2021/10/09 12:50:12;;;;;;;16.08;6.63;;;21.80;71.20;;;;;;5012781;28;20056;-64
2021/10/09 12:52:40;;;;;;;18.02;7.22;;;21.80;71.60;;;;;;5013029;28;20380;-69
2021/10/09 12:55:08;;;;;;;12.32;4.05;;;21.80;71.00;;;;;;5012845;28;20046;-67
2021/10/09 12:57:39;;;;;;;13.73;5.47;;;21.70;69.60;;;;;;5004296;28;20104;-69
2021/10/09 13:00:07;;;;;;;19.23;8.70;;;21.70;70.70;;;;;;5011384;28;20030;-69
2021/10/09 13:02:34;;;;;;;21.40;9.23;;;21.70;71.60;;;;;;5011601;28;20490;-65
2021/10/09 13:05:01;;;;;;;21.02;8.57;;;21.70;71.20;;;;;;5009477;28;20033;-69
2021/10/09 13:07:29;;;;;;;23.95;8.32;;;21.70;72.30;;;;;;5007296;28;20041;-67
2021/10/09 13:10:02;;;;;;;15.05;7.28;;;21.70;71.60;;;;;;5012478;28;20022;-65
2021/10/09 13:12:31;;;;;;;17.52;8.82;;;21.60;71.80;;;;;;5011764;28;20034;-65
2021/10/09 13:14:59;;;;;;;9.68;4.15;;;21.70;71.40;;;;;;5009566;28;20416;-70
2021/10/09 13:17:26;;;;;;;17.05;6.75;;;21.60;70.70;;;;;;4985544;28;20026;-69
2021/10/09 13:20:05;;;;;;;16.85;6.65;;;21.50;70.60;;;;;;5011193;28;20041;-69
2021/10/09 13:22:35;;;;;;;11.43;5.50;;;21.60;70.50;;;;;;5008511;28;20022;-60
2021/10/09 13:25:28;;;;;;;12.15;5.32;;;21.50;70.50;;;;;;5009561;28;20026;-68
2021/10/09 13:27:54;;;;;;;12.23;5.90;;;21.50;70.40;;;;;;5006296;28;20026;-68
2021/10/09 13:30:21;;;;;;;11.70;4.18;;;21.50;70.80;;;;;;5011400;28;20030;-69
2021/10/09 13:32:49;;;;;;;14.02;7.82;;;21.50;70.60;;;;;;5011980;28;20022;-69
2021/10/09 13:35:20;;;;;;;9.90;4.57;;;21.40;70.40;;;;;;5009019;28;20022;-67
2021/10/09 13:37:53;;;;;;;10.67;4.30;;;21.40;70.60;;;;;;4989196;28;20014;-70
2021/10/09 13:40:20;;;;;;;15.52;6.25;;;21.40;70.60;;;;;;5011142;28;20030;-69
2021/10/09 13:42:48;;;;;;;13.02;7.15;;;21.40;71.20;;;;;;5011278;28;20030;-68
2021/10/09 13:45:16;;;;;;;12.73;6.30;;;21.40;72.00;;;;;;5009259;28;20403;-69
2021/10/09 13:47:44;;;;;;;22.20;8.60;;;21.40;71.30;;;;;;5005325;28;20041;-66
2021/10/09 13:50:12;;;;;;;23.80;9.40;;;21.30;71.00;;;;;;5010925;28;20022;-67
2021/10/09 13:52:40;;;;;;;12.77;4.45;;;21.40;72.40;;;;;;5010687;28;20026;-69
2021/10/09 13:55:08;;;;;;;18.38;8.77;;;21.40;70.80;;;;;;5008799;28;20110;-66
2021/10/09 13:57:35;;;;;;;11.23;3.85;;;21.30;71.40;;;;;;5005749;28;20033;-70
2021/10/09 14:00:03;;;;;;;26.02;9.65;;;21.30;70.90;;;;;;4993220;28;20087;-66
2021/10/09 14:02:31;;;;;;;9.07;4.90;;;21.30;72.40;;;;;;5010766;28;20083;-70
2021/10/09 14:04:59;;;;;;;7.20;3.42;;;21.30;71.10;;;;;;5008709;28;20121;-69
2021/10/09 14:07:26;;;;;;;17.05;7.63;;;21.30;71.50;;;;;;5005598;28;20057;-63
2021/10/09 14:09:54;;;;;;;10.02;4.57;;;21.30;71.60;;;;;;5017591;28;20022;-67
2021/10/09 14:12:22;;;;;;;8.98;3.38;;;21.20;71.00;;;;;;5010480;28;20094;-69
2021/10/09 14:14:49;;;;;;;16.55;8.45;;;21.20;70.70;;;;;;5008869;28;20079;-67
2021/10/09 14:17:17;;;;;;;12.88;5.32;;;21.20;71.80;;;;;;5005830;28;20030;-63
2021/10/09 14:19:44;;;;;;;11.00;4.68;;;21.20;72.10;;;;;;4992468;28;20022;-66
2021/10/09 14:22:12;;;;;;;12.35;5.90;;;21.20;71.30;;;;;;5010534;28;20052;-68
2021/10/09 14:24:40;;;;;;;10.65;4.90;;;21.20;72.50;;;;;;4991641;28;20025;-64
2021/10/09 14:27:07;;;;;;;8.02;4.32;;;21.20;71.20;;;;;;4988448;28;20033;-65
2021/10/09 14:29:34;;;;;;;13.55;5.55;;;21.10;70.90;;;;;;5010224;28;20522;-72
2021/10/09 14:32:02;;;;;;;12.73;6.07;;;21.10;71.70;;;;;;5010378;28;20065;-68
2021/10/09 14:34:29;;;;;;;13.02;5.55;;;21.10;71.90;;;;;;5008616;28;20026;-64
2021/10/09 14:36:56;;;;;;;9.35;4.30;;;21.10;71.80;;;;;;5005544;28;20128;-71
2021/10/09 14:39:26;;;;;;;12.45;6.25;;;21.10;71.10;;;;;;5009229;28;20014;-66
2021/10/09 14:41:54;;;;;;;17.83;7.45;;;21.10;71.60;;;;;;5010283;28;20026;-65
2021/10/09 14:44:21;;;;;;;18.45;7.13;;;21.00;72.20;;;;;;5004406;28;20030;-66
2021/10/09 14:49:23;;;;;;;21.45;9.43;;;21.00;72.30;;;;;;5009640;28;20025;-66
2021/10/09 14:51:57;;;;;;;;;;;21.10;73.10;;;;;;5011482;28;20034;-68
2021/10/09 15:16:45;;;;;;;12.80;6.82;;;20.90;72.30;;;;;;5007067;28;20037;-69
2021/10/09 15:19:12;;;;;;;10.13;5.18;;;20.90;72.10;;;;;;5008005;28;20026;-66
2021/10/09 15:21:40;;;;;;;13.88;5.32;;;20.80;71.70;;;;;;5009200;28;20030;-67
2021/10/09 15:24:07;;;;;;;7.82;5.18;;;20.80;71.70;;;;;;5009406;28;20068;-65
2021/10/09 15:26:35;;;;;;;12.45;5.15;;;20.80;71.60;;;;;;5007629;28;20494;-68
2021/10/09 15:29:05;;;;;;;11.32;5.78;;;20.80;71.90;;;;;;5004673;28;20022;-66